VLG2VH LEBL-GCFV
Flight info
| Callsign | VLG2VH |
|---|---|
| Flight time | N/A |
| Altitude | 35000 |
| Route | LOTOS DCT TORDU DCT DIKUT DCT SOPET DCT VLC DCT SERRA DCT ASTRO DCT POBOS DCT XEBAR DCT YES DCT MAMIS DCT BAZAS DCT VIBAS DCT MGA DCT PIMOS/N0446F370 DCT GALTO UN869 RUSIK |
| Aircraft | A320/M-SDE3FGHIRWY/LB1 |
Departure
| Time | 2026-04-28 16:53 |
|---|---|
| Airport | Josep Tarradellas Barcelona-El Prat Airport (LEBL) |
Arrival
| Time | N/A |
|---|---|
| Airport | Fuerteventura Airport (GCFV) |
| Time | Latitude | Longitude | Altitude | Speed | Heading |
|---|---|---|---|---|---|
| 2026-04-28 16:17 | 41.29097 | 2.07796 | 21 ft | 0 kts | 155° |
| 2026-04-28 16:39 | 41.29103 | 2.07793 | 21 ft | 4 kts | 155° |
| 2026-04-28 16:39 | 41.29128 | 2.07778 | 19 ft | 4 kts | 154° |
| 2026-04-28 16:40 | 41.29150 | 2.07759 | 22 ft | 4 kts | 133° |
| 2026-04-28 16:40 | 41.29163 | 2.07731 | 19 ft | 4 kts | 88° |
| 2026-04-28 16:40 | 41.29160 | 2.07713 | 19 ft | 1 kts | 65° |
| 2026-04-28 16:40 | 41.29159 | 2.07711 | 19 ft | 0 kts | 65° |
| 2026-04-28 16:43 | 41.29159 | 2.07710 | 19 ft | 0 kts | 65° |
| 2026-04-28 16:45 | 41.29160 | 2.07714 | 19 ft | 3 kts | 65° |
| 2026-04-28 16:45 | 41.29170 | 2.07743 | 20 ft | 3 kts | 65° |
| 2026-04-28 16:45 | 41.29180 | 2.07772 | 19 ft | 3 kts | 65° |
| 2026-04-28 16:46 | 41.29187 | 2.07791 | 19 ft | 2 kts | 65° |
| 2026-04-28 16:46 | 41.29199 | 2.07828 | 20 ft | 18 kts | 65° |
| 2026-04-28 16:46 | 41.29273 | 2.08046 | 19 ft | 22 kts | 66° |
| 2026-04-28 16:46 | 41.29328 | 2.08206 | 20 ft | 19 kts | 65° |
| 2026-04-28 16:47 | 41.29366 | 2.08351 | 19 ft | 15 kts | 99° |
| 2026-04-28 16:47 | 41.29285 | 2.08426 | 20 ft | 15 kts | 154° |
| 2026-04-28 16:47 | 41.29189 | 2.08484 | 19 ft | 16 kts | 155° |
| 2026-04-28 16:47 | 41.29076 | 2.08552 | 17 ft | 19 kts | 156° |
| 2026-04-28 16:48 | 41.28957 | 2.08624 | 18 ft | 19 kts | 155° |
| 2026-04-28 16:48 | 41.28864 | 2.08728 | 17 ft | 17 kts | 92° |
| 2026-04-28 16:48 | 41.28911 | 2.08872 | 17 ft | 17 kts | 65° |
| 2026-04-28 16:48 | 41.28959 | 2.09010 | 17 ft | 16 kts | 66° |
| 2026-04-28 16:49 | 41.29001 | 2.09136 | 16 ft | 14 kts | 66° |
| 2026-04-28 16:49 | 41.29038 | 2.09245 | 18 ft | 12 kts | 65° |
| 2026-04-28 16:49 | 41.29074 | 2.09350 | 17 ft | 13 kts | 65° |
| 2026-04-28 16:49 | 41.29109 | 2.09452 | 18 ft | 11 kts | 65° |
| 2026-04-28 16:50 | 41.29142 | 2.09549 | 16 ft | 11 kts | 65° |
| 2026-04-28 16:50 | 41.29171 | 2.09634 | 17 ft | 9 kts | 65° |
| 2026-04-28 16:50 | 41.29196 | 2.09705 | 17 ft | 8 kts | 65° |
| 2026-04-28 16:50 | 41.29226 | 2.09793 | 17 ft | 12 kts | 65° |
| 2026-04-28 16:51 | 41.29259 | 2.09889 | 17 ft | 11 kts | 66° |
| 2026-04-28 16:51 | 41.29253 | 2.09970 | 17 ft | 10 kts | 134° |
| 2026-04-28 16:51 | 41.29191 | 2.09962 | 16 ft | 9 kts | 216° |
| 2026-04-28 16:51 | 41.29146 | 2.09917 | 17 ft | 7 kts | 216° |
| 2026-04-28 16:52 | 41.29121 | 2.09901 | 19 ft | 3 kts | 182° |
| 2026-04-28 16:52 | 41.29051 | 2.09857 | 19 ft | 22 kts | 241° |
| 2026-04-28 16:52 | 41.28969 | 2.09603 | 21 ft | 61 kts | 245° |
| 2026-04-28 16:52 | 41.28701 | 2.08825 | 20 ft | 121 kts | 245° |
| 2026-04-28 16:53 | 41.28274 | 2.07627 | 141 ft | 152 kts | 242° |
| 2026-04-28 16:53 | 41.27831 | 2.06436 | 815 ft | 151 kts | 241° |
| 2026-04-28 16:53 | 41.27280 | 2.05137 | 1243 ft | 170 kts | 226° |
| 2026-04-28 16:53 | 41.26187 | 2.04405 | 1696 ft | 191 kts | 179° |
| 2026-04-28 16:54 | 41.24791 | 2.04581 | 2278 ft | 209 kts | 171° |
| 2026-04-28 16:54 | 41.23344 | 2.04847 | 3174 ft | 214 kts | 171° |
| 2026-04-28 16:54 | 41.21881 | 2.05116 | 3980 ft | 213 kts | 171° |
| 2026-04-28 16:54 | 41.20905 | 2.05296 | 4424 ft | 216 kts | 171° |
| 2026-04-28 16:55 | 41.18898 | 2.05667 | 5356 ft | 219 kts | 172° |
| 2026-04-28 16:55 | 41.17370 | 2.05769 | 6004 ft | 224 kts | 188° |
| 2026-04-28 16:55 | 41.15892 | 2.04923 | 6419 ft | 240 kts | 211° |
| 2026-04-28 16:55 | 41.14439 | 2.03777 | 7059 ft | 244 kts | 209° |
| 2026-04-28 16:56 | 41.12969 | 2.02668 | 7766 ft | 247 kts | 208° |
| 2026-04-28 16:56 | 41.11460 | 2.01572 | 8497 ft | 249 kts | 207° |
| 2026-04-28 16:56 | 41.09918 | 2.00482 | 9252 ft | 251 kts | 207° |
| 2026-04-28 16:56 | 41.08414 | 1.99280 | 9961 ft | 255 kts | 219° |
| 2026-04-28 16:57 | 41.07220 | 1.97532 | 10583 ft | 260 kts | 236° |
| 2026-04-28 16:57 | 41.06450 | 1.95266 | 10803 ft | 284 kts | 253° |
| 2026-04-28 16:57 | 41.05917 | 1.92626 | 10966 ft | 308 kts | 254° |
| 2026-04-28 16:57 | 41.05344 | 1.89805 | 11344 ft | 321 kts | 252° |
| 2026-04-28 16:58 | 41.04582 | 1.87014 | 12010 ft | 324 kts | 248° |
| 2026-04-28 16:58 | 41.03764 | 1.84221 | 12746 ft | 326 kts | 248° |
| 2026-04-28 16:58 | 41.02933 | 1.81420 | 13482 ft | 327 kts | 248° |
| 2026-04-28 16:58 | 41.02095 | 1.78618 | 14153 ft | 329 kts | 248° |
| 2026-04-28 16:59 | 41.01250 | 1.75794 | 14772 ft | 331 kts | 248° |
| 2026-04-28 16:59 | 41.00401 | 1.72951 | 15391 ft | 333 kts | 248° |
| 2026-04-28 16:59 | 40.99547 | 1.70089 | 16000 ft | 335 kts | 248° |
| 2026-04-28 16:59 | 40.98690 | 1.67211 | 16588 ft | 338 kts | 248° |
| 2026-04-28 17:00 | 40.97823 | 1.64305 | 17180 ft | 340 kts | 248° |
| 2026-04-28 17:00 | 40.96962 | 1.61427 | 17756 ft | 343 kts | 248° |
| 2026-04-28 17:00 | 40.96069 | 1.58452 | 18334 ft | 346 kts | 248° |
| 2026-04-28 17:00 | 40.95192 | 1.55479 | 18823 ft | 348 kts | 250° |
| 2026-04-28 17:01 | 40.94405 | 1.52438 | 19306 ft | 352 kts | 251° |
| 2026-04-28 17:01 | 40.93680 | 1.49336 | 19749 ft | 356 kts | 252° |
| 2026-04-28 17:01 | 40.92974 | 1.46178 | 20217 ft | 359 kts | 253° |
| 2026-04-28 17:01 | 40.92264 | 1.42994 | 20697 ft | 362 kts | 252° |
| 2026-04-28 17:02 | 40.91538 | 1.39782 | 21175 ft | 365 kts | 252° |
| 2026-04-28 17:02 | 40.91047 | 1.37644 | 21501 ft | 367 kts | 252° |
| 2026-04-28 17:02 | 40.90039 | 1.33312 | 22115 ft | 372 kts | 252° |
| 2026-04-28 17:02 | 40.89265 | 1.30026 | 22576 ft | 375 kts | 251° |
| 2026-04-28 17:03 | 40.87689 | 1.23410 | 23486 ft | 381 kts | 251° |
| 2026-04-28 17:03 | 40.86884 | 1.20051 | 23872 ft | 384 kts | 251° |
| 2026-04-28 17:03 | 40.85928 | 1.16751 | 24267 ft | 386 kts | 242° |
| 2026-04-28 17:04 | 40.82542 | 1.11338 | 25013 ft | 390 kts | 218° |
| 2026-04-28 17:04 | 40.80209 | 1.09484 | 25380 ft | 394 kts | 205° |
| 2026-04-28 17:05 | 40.74912 | 1.07373 | 26078 ft | 400 kts | 197° |
| 2026-04-28 17:05 | 40.72227 | 1.06419 | 26424 ft | 403 kts | 197° |
| 2026-04-28 17:05 | 40.69502 | 1.05453 | 26758 ft | 405 kts | 197° |
| 2026-04-28 17:06 | 40.64037 | 1.03514 | 27423 ft | 409 kts | 197° |
| 2026-04-28 17:06 | 40.61280 | 1.02535 | 27752 ft | 411 kts | 197° |
| 2026-04-28 17:06 | 40.55899 | 1.00003 | 28360 ft | 412 kts | 211° |
| 2026-04-28 17:07 | 40.53517 | 0.97905 | 28660 ft | 413 kts | 221° |
| 2026-04-28 17:07 | 40.51450 | 0.95287 | 28961 ft | 413 kts | 229° |
| 2026-04-28 17:07 | 40.49511 | 0.92480 | 29256 ft | 415 kts | 229° |
| 2026-04-28 17:07 | 40.47560 | 0.89681 | 29532 ft | 417 kts | 228° |
| 2026-04-28 17:08 | 40.45586 | 0.86866 | 29797 ft | 420 kts | 228° |
| 2026-04-28 17:08 | 40.43595 | 0.84038 | 30055 ft | 422 kts | 228° |
| 2026-04-28 17:08 | 40.41595 | 0.81198 | 30284 ft | 424 kts | 228° |
| 2026-04-28 17:08 | 40.39586 | 0.78347 | 30510 ft | 426 kts | 228° |
| 2026-04-28 17:09 | 40.37568 | 0.75485 | 30744 ft | 428 kts | 228° |
| 2026-04-28 17:09 | 40.35544 | 0.72613 | 30972 ft | 429 kts | 228° |
| 2026-04-28 17:09 | 40.33520 | 0.69740 | 31190 ft | 431 kts | 228° |
| 2026-04-28 17:09 | 40.31481 | 0.66851 | 31404 ft | 432 kts | 228° |
| 2026-04-28 17:10 | 40.29434 | 0.63957 | 31614 ft | 433 kts | 228° |
| 2026-04-28 17:10 | 40.27376 | 0.61058 | 31824 ft | 435 kts | 227° |
| 2026-04-28 17:10 | 40.25340 | 0.58198 | 32074 ft | 435 kts | 227° |
| 2026-04-28 17:10 | 40.23277 | 0.55298 | 32288 ft | 436 kts | 227° |
| 2026-04-28 17:11 | 40.21206 | 0.52381 | 32511 ft | 437 kts | 227° |
| 2026-04-28 17:11 | 40.19135 | 0.49462 | 32754 ft | 437 kts | 227° |
| 2026-04-28 17:11 | 40.17069 | 0.46553 | 33030 ft | 436 kts | 227° |
| 2026-04-28 17:11 | 40.15007 | 0.43651 | 33302 ft | 436 kts | 227° |
| 2026-04-28 17:12 | 40.12943 | 0.40750 | 33578 ft | 435 kts | 227° |
| 2026-04-28 17:12 | 40.10885 | 0.37865 | 33855 ft | 435 kts | 227° |
| 2026-04-28 17:12 | 40.08823 | 0.34981 | 34132 ft | 433 kts | 227° |
| 2026-04-28 17:12 | 40.06774 | 0.32114 | 34411 ft | 431 kts | 227° |
| 2026-04-28 17:13 | 40.04726 | 0.29254 | 34648 ft | 430 kts | 227° |
| 2026-04-28 17:13 | 40.02681 | 0.26402 | 34859 ft | 430 kts | 227° |
| 2026-04-28 17:13 | 40.00635 | 0.23551 | 34960 ft | 428 kts | 226° |
| 2026-04-28 17:13 | 39.98628 | 0.20752 | 34975 ft | 418 kts | 227° |
| 2026-04-28 17:14 | 39.94691 | 0.15246 | 34978 ft | 413 kts | 227° |
| 2026-04-28 17:14 | 39.90786 | 0.09801 | 34977 ft | 413 kts | 226° |
| 2026-04-28 17:15 | 39.86858 | 0.04346 | 34978 ft | 413 kts | 226° |
| 2026-04-28 17:15 | 39.82922 | -0.01098 | 34986 ft | 412 kts | 227° |
| 2026-04-28 17:16 | 39.78994 | -0.06533 | 34973 ft | 412 kts | 226° |
| 2026-04-28 17:16 | 39.75064 | -0.11960 | 34956 ft | 412 kts | 226° |
| 2026-04-28 17:17 | 39.71139 | -0.17381 | 34944 ft | 412 kts | 226° |
| 2026-04-28 17:17 | 39.67205 | -0.22806 | 34931 ft | 412 kts | 226° |
| 2026-04-28 17:18 | 39.63287 | -0.28180 | 34920 ft | 412 kts | 226° |
| 2026-04-28 17:18 | 39.59340 | -0.33582 | 34912 ft | 412 kts | 226° |
| 2026-04-28 17:19 | 39.55387 | -0.38984 | 34901 ft | 413 kts | 226° |
| 2026-04-28 17:19 | 39.51429 | -0.44380 | 34900 ft | 413 kts | 226° |
| 2026-04-28 17:20 | 39.48194 | -0.48919 | 34900 ft | 413 kts | 232° |
| 2026-04-28 17:20 | 39.44137 | -0.55871 | 34900 ft | 414 kts | 232° |
| 2026-04-28 17:21 | 39.40662 | -0.61808 | 34913 ft | 414 kts | 232° |
| 2026-04-28 17:22 | 39.35452 | -0.70678 | 34956 ft | 414 kts | 232° |
| 2026-04-28 17:22 | 39.31966 | -0.76604 | 34954 ft | 415 kts | 232° |
| 2026-04-28 17:23 | 39.26722 | -0.85460 | 34953 ft | 415 kts | 232° |
| 2026-04-28 17:23 | 39.23218 | -0.91381 | 34955 ft | 415 kts | 232° |